Time;durP1;ratioP1;P1;durP2;ratioP2;P2;SDS_P1;SDS_P2;PMS_P1;PMS_P2;Temp;Humidity;BMP_temperature;BMP_pressure;BME280_temperature;BME280_humidity;BME280_pressure;Samples;Min_cycle;Max_cycle;Signal;HPM_P1;HPM_P2
2024/01/14 00:00:30;;;;;;;45.60;16.48;;;;;;;1.18;60.60;97261.72;5007447;28;20038;-81
2024/01/14 00:02:55;;;;;;;38.75;16.60;;;;;;;1.25;60.61;97272.81;5010713;28;20049;-81
2024/01/14 00:05:21;;;;;;;41.35;15.43;;;;;;;1.22;60.74;97263.75;5005496;28;20041;-82
2024/01/14 00:07:46;;;;;;;39.95;15.02;;;;;;;1.23;60.20;97257.63;5032349;28;20045;-80
2024/01/14 00:10:11;;;;;;;39.33;15.27;;;;;;;1.22;59.52;97247.56;5024310;28;20112;-81
2024/01/14 00:12:37;;;;;;;48.38;16.98;;;;;;;1.25;60.15;97250.56;5000599;28;20065;-82
2024/01/14 00:15:03;;;;;;;43.60;15.82;;;;;;;1.19;59.93;97248.72;5002699;28;20033;-81
2024/01/14 00:17:28;;;;;;;43.78;16.13;;;;;;;1.19;60.39;97247.91;5026105;28;20026;-81
2024/01/14 00:19:55;;;;;;;39.78;15.85;;;;;;;1.19;60.36;97250.50;5028780;28;20061;-82
2024/01/14 00:22:20;;;;;;;48.47;16.63;;;;;;;1.21;60.98;97246.75;5012217;28;20199;-81
2024/01/14 00:24:45;;;;;;;41.00;15.45;;;;;;;1.17;60.37;97242.97;4988720;28;20030;-82
2024/01/14 00:27:11;;;;;;;44.95;15.85;;;;;;;1.26;60.19;97231.59;5004054;28;20496;-81
2024/01/14 00:29:36;;;;;;;44.88;16.88;;;;;;;1.14;60.63;97230.50;5031663;28;20065;-82
2024/01/14 00:32:02;;;;;;;40.88;15.75;;;;;;;1.21;60.28;97218.53;5002125;28;20129;-82
2024/01/14 00:34:27;;;;;;;43.80;16.15;;;;;;;1.22;60.56;97209.88;5028814;28;20253;-81
2024/01/14 00:36:53;;;;;;;44.28;15.75;;;;;;;1.18;61.05;97200.16;5006538;28;20404;-81
2024/01/14 00:39:19;;;;;;;43.08;15.48;;;;;;;1.08;60.68;97205.59;5020014;28;20068;-78
2024/01/14 00:41:44;;;;;;;43.08;17.50;;;;;;;1.20;60.97;97193.88;5017035;28;20092;-78
2024/01/14 00:44:09;;;;;;;40.42;16.98;;;;;;;1.10;60.56;97193.41;4998562;28;20029;-78
2024/01/14 00:46:35;;;;;;;43.30;15.45;;;;;;;0.97;60.81;97185.56;5017354;28;20035;-78
2024/01/14 00:49:00;;;;;;;44.13;16.58;;;;;;;1.08;60.97;97187.63;5018578;28;20084;-77
2024/01/14 00:51:25;;;;;;;43.33;16.48;;;;;;;0.98;60.80;97182.03;4993823;28;20155;-77
2024/01/14 00:53:51;;;;;;;49.45;17.05;;;;;;;1.06;60.50;97181.91;5021542;28;20109;-78
2024/01/14 00:56:16;;;;;;;47.53;18.58;;;;;;;1.06;61.17;97182.72;5006983;28;20033;-78
2024/01/14 00:58:41;;;;;;;41.65;14.48;;;;;;;1.13;60.83;97172.50;5018252;28;20045;-78
2024/01/14 01:01:07;;;;;;;44.10;17.40;;;;;;;1.01;60.94;97174.78;4986143;28;20034;-79
2024/01/14 01:03:33;;;;;;;44.15;16.25;;;;;;;1.06;60.99;97166.53;5015271;28;20460;-78
2024/01/14 01:05:59;;;;;;;41.50;16.17;;;;;;;1.14;61.12;97168.97;5023715;28;20398;-78
2024/01/14 01:08:24;;;;;;;39.67;17.05;;;;;;;1.16;60.79;97155.97;5022425;28;20061;-78
2024/01/14 01:10:50;;;;;;;41.45;15.30;;;;;;;1.08;60.78;97147.44;5028196;28;20034;-78
2024/01/14 01:13:15;;;;;;;43.92;15.95;;;;;;;1.11;60.98;97148.81;5009307;28;20681;-77
2024/01/14 01:15:41;;;;;;;45.10;16.95;;;;;;;1.13;61.40;97144.28;5000719;28;20404;-78
2024/01/14 01:18:06;;;;;;;41.85;16.80;;;;;;;1.17;61.62;97148.09;4995341;28;20026;-78
2024/01/14 01:20:32;;;;;;;47.92;17.02;;;;;;;1.09;60.67;97143.09;5017955;28;20424;-78
2024/01/14 01:22:57;;;;;;;40.95;14.73;;;;;;;1.10;60.99;97148.03;4999118;28;20033;-78
2024/01/14 01:25:23;;;;;;;40.72;15.27;;;;;;;1.10;61.19;97140.34;5011810;28;20034;-78
2024/01/14 01:27:48;;;;;;;46.15;17.45;;;;;;;1.10;61.44;97142.13;4997116;28;20037;-77
2024/01/14 01:30:14;;;;;;;52.88;18.80;;;;;;;0.91;60.65;97134.06;5019752;28;20065;-77
2024/01/14 01:32:39;;;;;;;47.55;16.38;;;;;;;1.02;61.61;97142.25;5027167;28;20049;-77
2024/01/14 01:35:05;;;;;;;46.85;18.42;;;;;;;1.08;61.33;97139.75;5019682;28;20394;-78
2024/01/14 01:37:30;;;;;;;50.22;18.95;;;;;;;1.04;60.85;97142.84;4993021;28;20025;-78
2024/01/14 01:39:56;;;;;;;43.47;16.63;;;;;;;0.96;61.62;97136.09;5031305;28;20041;-78
2024/01/14 01:42:22;;;;;;;43.03;15.73;;;;;;;1.00;61.27;97144.19;4996118;28;20452;-78
2024/01/14 01:44:47;;;;;;;50.90;17.85;;;;;;;0.94;61.35;97150.84;4991551;28;20120;-78
2024/01/14 01:47:15;;;;;;;39.70;14.63;;;;;;;0.99;61.73;97155.41;5028295;28;20061;-77
2024/01/14 01:49:40;;;;;;;46.08;17.25;;;;;;;0.89;61.91;97153.97;4978625;28;20490;-82
2024/01/14 01:52:06;;;;;;;46.17;17.05;;;;;;;0.88;62.14;97154.16;5014970;28;20069;-82
2024/01/14 01:54:32;;;;;;;47.88;17.10;;;;;;;0.89;61.29;97146.28;5020500;28;20045;-82
2024/01/14 01:56:58;;;;;;;45.22;16.92;;;;;;;0.92;62.11;97140.75;5011912;28;20129;-82
2024/01/14 01:59:24;;;;;;;52.92;17.48;;;;;;;0.82;62.16;97145.41;5012404;28;20532;-82
2024/01/14 02:01:49;;;;;;;44.67;17.83;;;;;;;0.87;61.20;97135.38;4999292;28;20037;-82
2024/01/14 02:04:15;;;;;;;44.13;16.25;;;;;;;0.89;60.86;97136.03;4998687;28;20041;-82
2024/01/14 02:06:41;;;;;;;47.13;15.75;;;;;;;0.87;60.94;97132.81;4991391;28;20046;-82
2024/01/14 02:09:08;;;;;;;41.50;16.40;;;;;;;0.80;61.76;97134.53;4988344;28;20505;-82
2024/01/14 02:11:36;;;;;;;45.67;17.15;;;;;;;0.75;61.29;97134.28;5023867;28;20489;-82
2024/01/14 02:14:02;;;;;;;47.35;16.20;;;;;;;0.67;62.46;97130.09;5013654;28;20042;-80
2024/01/14 02:16:28;;;;;;;42.60;16.08;;;;;;;0.69;61.75;97130.69;5002900;28;20064;-81
2024/01/14 02:18:53;;;;;;;49.03;17.48;;;;;;;0.69;62.39;97115.31;5016392;28;20069;-82
2024/01/14 02:21:23;;;;;;;45.00;16.48;;;;;;;0.71;61.23;97117.72;5007680;28;20400;-82
2024/01/14 02:24:21;;;;;;;41.70;15.65;;;;;;;0.77;61.05;97119.53;5018902;28;20045;-82
2024/01/14 02:26:46;;;;;;;46.45;16.77;;;;;;;0.79;62.19;97120.16;5015397;28;20293;-82
2024/01/14 02:29:13;;;;;;;52.45;16.55;;;;;;;0.77;62.01;97121.31;5008593;28;20052;-82
2024/01/14 02:31:38;;;;;;;47.50;18.23;;;;;;;0.72;61.77;97126.97;4997615;28;20087;-82
2024/01/14 02:34:06;;;;;;;53.20;17.98;;;;;;;0.65;62.25;97113.31;5017250;28;20029;-82
2024/01/14 02:36:32;;;;;;;46.08;15.82;;;;;;;0.80;62.59;97119.16;5001957;28;20033;-81
2024/01/14 02:38:58;;;;;;;45.22;16.15;;;;;;;0.72;61.50;97109.84;5004475;28;20033;-82
2024/01/14 02:41:23;;;;;;;46.15;15.45;;;;;;;0.71;62.41;97102.34;5015872;28;20042;-80
2024/01/14 02:43:48;;;;;;;52.97;17.58;;;;;;;0.70;62.47;97105.84;5009904;28;20034;-82
2024/01/14 02:46:14;;;;;;;50.25;16.77;;;;;;;0.67;62.63;97108.78;5000275;28;20045;-82
2024/01/14 02:48:39;;;;;;;45.38;16.80;;;;;;;0.67;62.07;97101.09;4976494;28;20041;-82
2024/01/14 02:51:04;;;;;;;47.55;16.88;;;;;;;0.73;61.99;97103.72;5016533;28;20096;-82
2024/01/14 02:53:30;;;;;;;45.85;16.75;;;;;;;0.71;62.33;97104.91;5004560;28;20087;-82
2024/01/14 02:55:55;;;;;;;42.15;16.50;;;;;;;0.77;62.53;97104.16;5013075;28;20041;-82
2024/01/14 02:58:22;;;;;;;48.72;17.25;;;;;;;0.79;61.62;97094.53;5007588;28;20045;-77
2024/01/14 03:00:47;;;;;;;51.55;17.58;;;;;;;0.78;61.94;97092.16;5013813;28;20401;-77
2024/01/14 03:03:13;;;;;;;46.28;16.80;;;;;;;0.85;61.98;97100.69;5025132;28;20041;-78
2024/01/14 03:05:39;;;;;;;52.83;19.63;;;;;;;0.73;62.30;97093.47;5005051;28;20034;-77
2024/01/14 03:08:04;;;;;;;47.10;17.20;;;;;;;0.71;62.64;97092.09;4990261;28;20132;-78
2024/01/14 03:10:29;;;;;;;48.25;16.23;;;;;;;0.74;62.74;97089.16;4991898;28;20334;-78
2024/01/14 03:12:55;;;;;;;46.38;16.38;;;;;;;0.83;61.84;97087.25;5000617;28;20069;-78
2024/01/14 03:15:20;;;;;;;50.15;16.48;;;;;;;0.72;61.93;97089.34;5020329;28;20096;-78
2024/01/14 03:17:45;;;;;;;52.78;19.45;;;;;;;0.81;61.96;97095.13;5027576;28;20430;-78
2024/01/14 03:20:11;;;;;;;45.20;16.70;;;;;;;0.82;61.69;97096.69;5015336;28;20037;-78
2024/01/14 03:22:37;;;;;;;44.78;15.82;;;;;;;0.93;61.82;97085.97;5002059;28;20083;-78
2024/01/14 03:25:03;;;;;;;47.67;17.40;;;;;;;0.89;62.38;97077.06;5008586;28;20400;-78
2024/01/14 03:27:29;;;;;;;47.20;15.95;;;;;;;0.81;62.07;97081.53;5010484;28;20084;-78
2024/01/14 03:29:54;;;;;;;46.92;16.02;;;;;;;0.80;62.88;97067.13;4985935;28;20715;-77
2024/01/14 03:32:20;;;;;;;48.42;16.38;;;;;;;0.83;62.47;97075.22;5009568;28;20412;-78
2024/01/14 03:34:45;;;;;;;45.40;16.98;;;;;;;0.86;62.66;97079.22;5012420;28;20144;-78
2024/01/14 03:37:11;;;;;;;42.72;16.33;;;;;;;0.89;62.24;97071.94;5023818;28;20091;-78
2024/01/14 03:39:36;;;;;;;48.33;16.05;;;;;;;0.88;62.59;97065.22;5016571;28;20048;-78
2024/01/14 03:42:01;;;;;;;46.63;17.98;;;;;;;0.85;62.19;97065.59;5005664;28;20523;-77
2024/01/14 03:44:27;;;;;;;50.42;17.17;;;;;;;0.94;62.17;97066.25;4980511;28;20033;-78
2024/01/14 03:46:52;;;;;;;38.72;15.75;;;;;;;0.95;61.99;97074.75;5039268;28;20128;-78
2024/01/14 03:49:17;;;;;;;44.10;16.55;;;;;;;1.00;61.94;97067.28;5023458;28;20389;-78
2024/01/14 03:51:43;;;;;;;58.30;17.42;;;;;;;0.99;61.80;97068.25;5008650;28;20215;-78
2024/01/14 03:54:08;;;;;;;47.33;15.60;;;;;;;1.02;61.12;97065.31;5012665;28;20378;-78
2024/01/14 03:56:33;;;;;;;45.20;16.23;;;;;;;0.97;61.35;97065.09;5002596;28;20125;-78
2024/01/14 03:58:59;;;;;;;44.13;16.25;;;;;;;0.95;61.71;97061.94;4985519;28;20049;-78
2024/01/14 04:01:25;;;;;;;51.17;18.17;;;;;;;0.95;60.83;97061.94;4993730;28;20107;-78
2024/01/14 04:03:50;;;;;;;47.17;16.08;;;;;;;0.91;62.14;97057.16;4979797;28;20045;-78
2024/01/14 04:06:19;;;;;;;44.88;16.58;;;;;;;0.81;62.10;97041.31;5033937;28;20481;-78
2024/01/14 04:08:44;;;;;;;51.00;17.05;;;;;;;0.87;62.02;97057.72;5012511;28;20033;-83
2024/01/14 04:11:10;;;;;;;49.83;16.00;;;;;;;0.84;62.22;97063.19;5010567;28;20021;-80
2024/01/14 04:13:35;;;;;;;46.13;16.88;;;;;;;0.95;62.20;97056.81;5001376;28;20042;-81
2024/01/14 04:16:01;;;;;;;51.25;17.05;;;;;;;0.85;61.20;97054.53;5008864;28;20028;-80
2024/01/14 04:18:26;;;;;;;43.90;15.30;;;;;;;0.91;61.49;97057.16;5023025;28;20029;-83
2024/01/14 04:20:51;;;;;;;43.40;14.93;;;;;;;0.89;61.52;97048.06;5024804;28;20528;-82
2024/01/14 04:23:19;;;;;;;43.80;16.27;;;;;;;0.80;61.08;97052.53;5009911;28;20116;-82
2024/01/14 04:25:44;;;;;;;43.35;16.90;;;;;;;0.78;62.38;97046.03;5016429;28;20037;-82
2024/01/14 04:28:10;;;;;;;48.10;17.20;;;;;;;0.83;62.09;97049.59;4982309;28;20110;-82
2024/01/14 04:30:35;;;;;;;53.55;17.83;;;;;;;0.70;62.70;97049.50;5019696;28;20116;-82
2024/01/14 04:33:00;;;;;;;48.15;15.65;;;;;;;0.74;61.64;97043.81;5026759;28;20041;-82
2024/01/14 04:35:26;;;;;;;47.42;17.63;;;;;;;0.80;62.43;97055.09;5022483;28;20117;-82
2024/01/14 04:37:51;;;;;;;53.22;17.75;;;;;;;0.85;62.29;97055.34;5002581;28;20572;-82
2024/01/14 04:40:16;;;;;;;44.72;17.30;;;;;;;0.91;61.75;97051.25;4991400;28;20080;-82
2024/01/14 04:42:45;;;;;;;48.70;18.02;;;;;;;0.82;62.16;97044.66;5026401;28;20044;-81
2024/01/14 04:45:10;;;;;;;54.78;18.20;;;;;;;0.85;62.10;97051.97;5019800;28;20121;-82
2024/01/14 04:47:35;;;;;;;52.25;15.57;;;;;;;0.87;61.56;97050.81;4996725;28;20116;-82
2024/01/14 04:50:01;;;;;;;49.95;15.70;;;;;;;0.83;61.47;97044.47;5002045;28;20041;-82
2024/01/14 04:52:26;;;;;;;51.30;16.92;;;;;;;0.74;61.63;97035.34;4998511;28;20394;-82
2024/01/14 04:54:52;;;;;;;51.53;17.80;;;;;;;0.95;62.18;97049.91;5012202;28;20127;-82
2024/01/14 04:57:17;;;;;;;56.05;17.92;;;;;;;0.94;61.61;97032.91;5018008;28;20022;-81
2024/01/14 04:59:43;;;;;;;47.55;16.88;;;;;;;0.74;61.42;97037.91;5023270;28;20404;-82
2024/01/14 05:02:09;;;;;;;50.55;16.42;;;;;;;0.81;62.52;97030.28;5002743;28;20039;-81
2024/01/14 05:04:34;;;;;;;48.60;16.95;;;;;;;0.69;62.59;97024.84;4985383;28;20119;-82
2024/01/14 05:06:59;;;;;;;48.58;16.08;;;;;;;0.69;62.13;97032.53;5022143;28;20286;-82
2024/01/14 05:09:25;;;;;;;56.65;18.73;;;;;;;0.73;61.92;97039.66;5008967;28;20375;-82
2024/01/14 05:11:50;;;;;;;49.42;17.20;;;;;;;0.72;61.78;97021.91;5005206;28;20034;-82
2024/01/14 05:14:16;;;;;;;48.75;17.75;;;;;;;0.82;62.49;97012.13;5010634;28;20079;-82
2024/01/14 05:16:42;;;;;;;46.58;16.45;;;;;;;0.78;62.59;97010.94;4996199;28;20057;-82
2024/01/14 05:19:07;;;;;;;48.00;16.52;;;;;;;0.82;61.96;97007.00;5014277;28;20041;-82
2024/01/14 05:21:33;;;;;;;46.63;15.88;;;;;;;0.89;61.05;97018.13;4991190;28;20049;-81
2024/01/14 05:23:58;;;;;;;46.65;15.57;;;;;;;0.89;61.31;97015.56;4992170;28;20022;-82
2024/01/14 05:26:24;;;;;;;46.40;16.52;;;;;;;0.76;62.26;97012.09;5025356;28;20099;-81
2024/01/14 05:28:50;;;;;;;45.85;14.25;;;;;;;0.52;62.02;97008.94;4996653;28;20038;-82
2024/01/14 05:31:16;;;;;;;46.70;15.82;;;;;;;0.69;62.23;97006.91;5009431;28;20478;-81
2024/01/14 05:33:41;;;;;;;46.50;14.80;;;;;;;0.67;62.10;97006.28;4988156;28;20049;-82
2024/01/14 05:36:06;;;;;;;43.88;15.32;;;;;;;0.71;62.93;97007.53;5016338;28;20453;-82
2024/01/14 05:38:32;;;;;;;43.35;15.85;;;;;;;0.83;62.13;97011.16;4995716;28;20033;-81
2024/01/14 05:40:58;;;;;;;45.05;15.80;;;;;;;0.84;61.99;97005.06;5021767;28;20469;-82
2024/01/14 05:43:23;;;;;;;46.17;15.43;;;;;;;0.93;61.86;96998.81;4995364;28;20081;-82
2024/01/14 05:45:48;;;;;;;45.17;15.40;;;;;;;0.74;61.75;96994.34;5011826;28;20033;-82
2024/01/14 05:48:14;;;;;;;47.33;15.93;;;;;;;0.73;61.81;96998.66;5010025;28;20026;-82
2024/01/14 05:50:39;;;;;;;43.40;15.07;;;;;;;0.47;62.47;96988.22;5023759;28;20492;-82
2024/01/14 05:53:05;;;;;;;40.95;16.70;;;;;;;0.69;62.18;96989.78;5030991;28;20045;-82
2024/01/14 05:55:30;;;;;;;43.42;15.82;;;;;;;0.75;61.38;96990.78;4979758;28;20237;-82
2024/01/14 05:57:55;;;;;;;41.70;15.60;;;;;;;0.75;62.54;96980.53;5024755;28;20109;-82
2024/01/14 06:00:22;;;;;;;43.00;15.23;;;;;;;0.75;62.07;96983.09;5012977;28;20034;-82
2024/01/14 06:02:49;;;;;;;42.25;14.30;;;;;;;0.53;62.19;96985.72;5014498;28;20466;-82
2024/01/14 06:05:15;;;;;;;44.42;15.20;;;;;;;0.62;61.93;96983.81;4999670;28;20053;-82
2024/01/14 06:07:40;;;;;;;41.30;14.32;;;;;;;0.56;62.28;96981.97;4991338;28;20477;-82
2024/01/14 06:10:06;;;;;;;45.72;15.93;;;;;;;0.73;61.67;96985.06;5023881;28;20037;-82
2024/01/14 06:12:31;;;;;;;42.30;15.13;;;;;;;0.67;62.63;96978.09;5018140;28;20026;-82
2024/01/14 06:14:57;;;;;;;51.03;15.25;;;;;;;0.60;61.87;96967.84;5016395;28;20038;-82
2024/01/14 06:17:22;;;;;;;45.40;16.55;;;;;;;0.69;61.64;96965.94;5006719;28;20149;-81
2024/01/14 06:19:47;;;;;;;43.63;15.52;;;;;;;0.68;61.85;96970.25;5019399;28;20057;-82
2024/01/14 06:22:13;;;;;;;48.78;14.38;;;;;;;0.65;62.31;96962.94;5003163;28;20462;-82
2024/01/14 06:24:38;;;;;;;39.25;15.57;;;;;;;0.62;62.50;96959.94;5004775;28;20091;-82
2024/01/14 06:27:04;;;;;;;42.80;15.88;;;;;;;0.63;61.78;96956.41;5009736;28;20064;-82
2024/01/14 06:29:29;;;;;;;41.00;15.30;;;;;;;0.58;62.58;96953.63;5004689;28;20060;-81
2024/01/14 06:31:54;;;;;;;40.97;14.02;;;;;;;0.36;62.72;96951.88;5003454;28;20411;-82
2024/01/14 06:34:20;;;;;;;41.92;14.98;;;;;;;0.67;61.99;96957.63;4987002;28;20045;-81
2024/01/14 06:36:45;;;;;;;40.70;15.00;;;;;;;0.59;62.50;96955.22;5008031;28;20065;-82
2024/01/14 06:39:11;;;;;;;41.25;14.30;;;;;;;0.62;62.00;96947.94;5002504;28;20084;-78
2024/01/14 06:41:36;;;;;;;40.45;14.60;;;;;;;0.60;61.50;96947.34;5015825;28;20044;-78
2024/01/14 06:44:02;;;;;;;49.85;14.82;;;;;;;0.34;61.71;96937.66;5022838;28;20499;-78
2024/01/14 06:46:28;;;;;;;41.95;14.73;;;;;;;0.54;62.34;96946.28;5000368;28;20025;-78
2024/01/14 06:48:53;;;;;;;38.85;13.25;;;;;;;0.53;62.00;96931.09;5010495;28;20292;-78
2024/01/14 06:51:18;;;;;;;41.38;13.45;;;;;;;0.47;62.37;96932.66;5002873;28;20037;-78
2024/01/14 06:53:44;;;;;;;35.80;14.45;;;;;;;0.43;63.24;96935.75;5013881;28;20041;-78
2024/01/14 06:56:09;;;;;;;36.10;12.85;;;;;;;0.45;62.39;96929.50;5004067;28;20116;-78
2024/01/14 06:58:35;;;;;;;42.47;14.45;;;;;;;0.46;62.37;96922.59;4998806;28;20064;-78
2024/01/14 07:01:03;;;;;;;39.95;13.35;;;;;;;0.40;62.36;96924.13;5007854;28;20061;-78
2024/01/14 07:03:28;;;;;;;42.05;14.38;;;;;;;0.47;62.54;96921.63;4993188;28;20054;-78
2024/01/14 07:05:54;;;;;;;41.30;15.35;;;;;;;0.50;62.17;96922.03;4997405;28;20068;-78
2024/01/14 07:08:22;;;;;;;37.20;13.80;;;;;;;0.41;62.86;96907.78;5029535;28;20730;-78
2024/01/14 07:10:47;;;;;;;41.35;15.30;;;;;;;0.47;61.72;96914.72;5006285;28;20110;-78
2024/01/14 07:13:13;;;;;;;34.53;12.38;;;;;;;0.31;62.78;96904.75;5023138;28;20112;-78
2024/01/14 07:15:38;;;;;;;41.10;14.73;;;;;;;0.41;62.32;96910.34;5020168;28;20038;-78
2024/01/14 07:18:04;;;;;;;37.85;13.52;;;;;;;0.49;62.94;96914.53;4997788;28;20022;-79
2024/01/14 07:20:30;;;;;;;38.45;13.43;;;;;;;0.40;61.79;96908.75;4991778;28;20510;-78
2024/01/14 07:22:55;;;;;;;34.17;12.27;;;;;;;0.52;61.74;96902.16;5023170;28;20037;-78
2024/01/14 07:25:21;;;;;;;41.08;13.95;;;;;;;0.27;63.07;96895.84;5004957;28;20383;-78
2024/01/14 07:27:46;;;;;;;32.83;12.18;;;;;;;0.23;63.34;96897.22;5009439;28;20034;-78
2024/01/14 07:30:12;;;;;;;32.10;10.75;;;;;;;0.42;62.52;96898.34;5023654;28;20030;-78
2024/01/14 07:32:37;;;;;;;34.65;12.88;;;;;;;0.37;62.20;96904.78;4991566;28;20037;-83
2024/01/14 07:35:03;;;;;;;34.08;10.02;;;;;;;0.37;62.23;96901.44;5007765;28;20103;-82
2024/01/14 07:37:33;;;;;;;30.42;10.25;;;;;;;0.46;62.00;96907.22;4982260;28;20109;-82
2024/01/14 07:39:59;;;;;;;34.70;12.10;;;;;;;0.49;62.17;96905.06;4995003;28;20113;-79
2024/01/14 07:42:25;;;;;;;33.03;11.00;;;;;;;0.56;62.41;96905.13;5018253;28;20513;-82
2024/01/14 07:44:51;;;;;;;34.13;9.98;;;;;;;0.54;61.56;96901.97;5025137;28;20493;-83
2024/01/14 07:47:17;;;;;;;29.00;11.10;;;;;;;0.49;62.32;96905.06;4992268;28;20041;-83
2024/01/14 07:49:48;;;;;;;28.02;10.32;;;;;;;0.51;61.89;96908.22;5006958;28;20139;-82
2024/01/14 07:52:14;;;;;;;35.47;11.75;;;;;;;0.59;61.87;96903.97;5001240;28;20116;-78
2024/01/14 07:54:39;;;;;;;29.38;10.90;;;;;;;0.53;61.86;96901.19;4983541;28;20112;-78
2024/01/14 07:57:05;;;;;;;30.73;11.75;;;;;;;0.52;61.60;96889.34;5024118;28;20179;-78
2024/01/14 07:59:30;;;;;;;32.55;10.95;;;;;;;0.55;61.45;96886.41;5012515;28;20034;-78
2024/01/14 08:01:55;;;;;;;30.88;11.43;;;;;;;0.56;61.65;96895.66;5001571;28;20540;-82
2024/01/14 08:04:21;;;;;;;36.40;12.95;;;;;;;0.52;61.48;96889.34;4994973;28;20489;-81
2024/01/14 08:06:46;;;;;;;34.70;11.80;;;;;;;0.46;61.00;96886.72;5025950;28;20091;-81
2024/01/14 08:09:12;;;;;;;35.65;11.75;;;;;;;0.18;61.51;96888.31;5027597;28;20029;-82
2024/01/14 08:11:37;;;;;;;29.33;10.93;;;;;;;0.17;62.14;96876.50;5002154;28;20049;-82
2024/01/14 08:14:02;;;;;;;26.23;10.50;;;;;;;0.41;62.27;96878.81;5020766;28;20025;-82
2024/01/14 08:16:28;;;;;;;27.52;10.75;;;;;;;0.37;61.22;96883.53;5027961;28;20029;-82
2024/01/14 08:18:53;;;;;;;31.63;10.40;;;;;;;0.37;61.88;96875.84;4993358;28;20017;-82
2024/01/14 08:21:18;;;;;;;32.00;10.75;;;;;;;0.30;62.05;96875.78;5007019;28;20180;-82
2024/01/14 08:23:44;;;;;;;33.53;11.98;;;;;;;0.42;61.04;96873.50;5006880;28;20127;-82
2024/01/14 08:26:09;;;;;;;30.67;10.60;;;;;;;0.47;62.05;96870.41;5023573;28;20397;-82
2024/01/14 08:28:36;;;;;;;26.13;10.30;;;;;;;0.45;61.27;96870.59;4993096;28;20121;-82
2024/01/14 08:31:01;;;;;;;32.83;11.32;;;;;;;0.35;61.48;96863.22;5002871;28;20030;-83
2024/01/14 08:33:28;;;;;;;27.27;10.57;;;;;;;0.41;61.06;96861.66;4993670;28;20037;-82
2024/01/14 08:35:54;;;;;;;34.40;11.50;;;;;;;0.45;61.48;96870.59;5005141;28;20117;-82
2024/01/14 08:38:20;;;;;;;28.48;9.10;;;;;;;0.28;61.31;96862.38;4984363;28;20038;-82
2024/01/14 08:40:46;;;;;;;29.85;9.65;;;;;;;0.34;61.84;96866.78;5025911;28;20045;-83
2024/01/14 08:43:11;;;;;;;24.98;8.80;;;;;;;0.20;61.94;96859.97;5024912;28;20393;-82
2024/01/14 08:45:37;;;;;;;32.28;10.18;;;;;;;0.37;61.00;96860.47;4998548;28;20448;-82
2024/01/14 08:48:02;;;;;;;24.23;9.68;;;;;;;0.30;62.13;96857.88;4996600;28;20057;-81
2024/01/14 08:50:28;;;;;;;26.90;9.32;;;;;;;0.28;61.13;96859.03;4997728;28;20037;-82
2024/01/14 08:52:53;;;;;;;24.58;9.23;;;;;;;0.43;60.97;96852.06;5019242;28;20111;-77
2024/01/14 08:55:18;;;;;;;29.17;10.02;;;;;;;0.45;61.16;96855.22;5009697;28;20420;-78
2024/01/14 08:57:44;;;;;;;25.58;8.70;;;;;;;0.46;60.71;96848.31;4988687;28;20033;-78
2024/01/14 09:00:09;;;;;;;30.65;10.25;;;;;;;0.48;60.91;96851.47;5025927;28;20038;-78
2024/01/14 09:02:35;;;;;;;23.75;9.32;;;;;;;0.42;61.26;96855.59;4993412;28;20079;-78
2024/01/14 09:05:00;;;;;;;26.50;10.38;;;;;;;0.31;61.92;96846.66;5022841;28;20034;-78
2024/01/14 09:07:26;;;;;;;26.95;10.10;;;;;;;0.42;61.85;96860.69;5011345;28;20087;-78
2024/01/14 09:09:51;;;;;;;25.48;10.07;;;;;;;0.47;61.21;96853.25;5015965;28;20072;-78
2024/01/14 09:12:17;;;;;;;30.70;8.93;;;;;;;0.48;61.26;96849.72;5007686;28;20033;-83
2024/01/14 09:14:42;;;;;;;25.92;8.90;;;;;;;0.41;60.73;96846.31;5016029;28;20576;-82
2024/01/14 09:17:08;;;;;;;27.45;8.55;;;;;;;0.43;61.63;96849.50;5023892;28;20117;-82
2024/01/14 09:19:34;;;;;;;25.92;9.73;;;;;;;0.53;61.92;96855.06;5006940;28;20123;-83
2024/01/14 09:21:59;;;;;;;25.38;8.05;;;;;;;0.48;61.26;96848.91;5031330;28;20081;-83
2024/01/14 09:24:24;;;;;;;21.05;7.53;;;;;;;0.42;60.37;96847.91;5011924;28;20033;-82
2024/01/14 09:26:50;;;;;;;20.85;7.75;;;;;;;0.37;61.21;96851.00;5003307;28;20030;-82
2024/01/14 09:29:15;;;;;;;22.88;8.85;;;;;;;0.44;61.12;96856.19;5015593;28;20030;-82
2024/01/14 09:31:40;;;;;;;24.50;8.00;;;;;;;0.32;60.76;96860.25;5006725;28;20033;-82
2024/01/14 09:34:06;;;;;;;23.52;8.55;;;;;;;0.40;60.65;96864.44;5016521;28;20350;-82
2024/01/14 09:36:32;;;;;;;21.65;8.20;;;;;;;0.32;61.05;96855.91;5003299;28;20032;-81
2024/01/14 09:38:58;;;;;;;24.73;9.07;;;;;;;0.41;60.79;96861.66;5031379;28;20036;-83
2024/01/14 09:41:42;;;;;;;24.25;9.23;;;;;;;0.43;60.82;96857.19;5017140;28;20033;-83
2024/01/14 09:44:09;;;;;;;21.98;8.10;;;;;;;0.38;61.17;96846.69;4998565;28;20429;-82
2024/01/14 09:46:35;;;;;;;21.67;7.40;;;;;;;0.44;61.57;96858.75;5005105;28;20153;-83
2024/01/14 09:49:01;;;;;;;22.48;7.50;;;;;;;0.56;61.78;96853.88;5005539;28;20112;-82
2024/01/14 09:51:29;;;;;;;20.10;7.85;;;;;;;0.62;61.80;96852.34;5008927;28;20124;-82
2024/01/14 09:53:55;;;;;;;20.30;7.13;;;;;;;0.44;61.44;96851.06;5019898;28;20047;-82
2024/01/14 09:56:21;;;;;;;20.02;7.32;;;;;;;0.44;60.83;96851.06;4985549;28;20392;-82
2024/01/14 09:58:47;;;;;;;18.88;7.65;;;;;;;0.53;61.80;96855.06;4995760;28;20112;-82
2024/01/14 10:01:16;;;;;;;18.92;7.22;;;;;;;0.54;61.01;96860.97;4982529;28;20040;-82
2024/01/14 10:03:42;;;;;;;22.52;7.05;;;;;;;0.52;60.79;96868.06;5030378;28;20041;-82
2024/01/14 10:06:07;;;;;;;18.00;7.35;;;;;;;0.56;61.10;96846.22;5006084;28;20492;-82
2024/01/14 10:08:32;;;;;;;19.30;6.40;;;;;;;0.52;60.19;96861.16;5015457;28;20026;-82
2024/01/14 10:10:58;;;;;;;19.33;7.30;;;;;;;0.49;60.28;96856.41;5003655;28;20026;-82
2024/01/14 10:13:24;;;;;;;18.50;6.15;;;;;;;0.45;61.20;96844.19;4998714;28;20318;-82
2024/01/14 10:15:50;;;;;;;16.13;5.90;;;;;;;0.43;59.81;96841.00;5018239;28;20551;-82
2024/01/14 10:18:16;;;;;;;15.15;5.88;;;;;;;0.42;61.24;96842.78;5016850;28;20030;-82
2024/01/14 10:20:41;;;;;;;17.98;6.85;;;;;;;0.43;61.53;96829.00;5008696;28;20079;-82
2024/01/14 10:23:09;;;;;;;16.42;6.35;;;;;;;0.45;61.13;96828.81;4986148;28;20025;-82
2024/01/14 10:25:35;;;;;;;20.92;7.32;;;;;;;0.42;60.96;96829.97;5007186;28;20037;-82
2024/01/14 10:28:04;;;;;;;19.40;7.57;;;;;;;0.55;60.64;96819.03;4995515;28;20068;-82
2024/01/14 10:30:29;;;;;;;22.73;9.77;;;;;;;0.52;61.09;96827.88;4999099;28;20036;-82
2024/01/14 10:32:55;;;;;;;21.52;9.15;;;;;;;0.50;60.56;96817.03;5026382;28;20033;-83
2024/01/14 10:35:21;;;;;;;20.00;8.10;;;;;;;0.49;59.96;96809.53;5000795;28;20065;-82
2024/01/14 10:37:46;;;;;;;29.88;11.88;;;;;;;0.60;60.87;96803.88;5008761;28;20029;-81
2024/01/14 10:40:12;;;;;;;24.13;8.40;;;;;;;0.50;61.15;96804.22;5004935;28;20076;-82
2024/01/14 10:42:38;;;;;;;18.63;6.22;;;;;;;0.37;60.43;96797.22;5003608;28;20044;-80
2024/01/14 10:45:07;;;;;;;24.25;8.50;;;;;;;0.47;60.81;96799.47;4987555;28;20026;-81
2024/01/14 10:47:36;;;;;;;20.10;7.43;;;;;;;0.60;60.50;96797.94;5016051;28;20038;-82
2024/01/14 10:50:01;;;;;;;21.08;8.05;;;;;;;0.40;60.68;96788.41;5003974;28;20041;-83
2024/01/14 10:52:31;;;;;;;21.27;8.65;;;;;;;0.53;60.87;96793.59;4991482;28;20104;-83
2024/01/14 10:54:58;;;;;;;19.73;7.70;;;;;;;0.55;61.06;96783.94;5013988;28;20141;-82
2024/01/14 10:57:34;;;;;;;21.85;8.32;;;;;;;0.45;60.35;96775.81;5018009;28;20095;-82
2024/01/14 11:00:09;;;;;;;19.60;7.45;;;;;;;0.56;61.33;96769.34;5011597;28;20485;-83
2024/01/14 11:02:36;;;;;;;23.42;7.97;;;;;;;0.61;61.20;96761.88;5003747;28;20052;-82
2024/01/14 11:05:03;;;;;;;22.95;7.40;;;;;;;0.59;61.16;96750.28;5019114;28;20553;-83
2024/01/14 11:07:30;;;;;;;21.95;9.13;;;;;;;0.74;60.77;96754.25;5017702;28;20068;-82
2024/01/14 11:09:56;;;;;;;25.63;7.82;;;;;;;0.63;60.44;96746.31;4994954;28;20034;-81
2024/01/14 11:12:43;;;;;;;18.88;8.02;;;;;;;0.83;60.46;96744.63;4972773;28;20858;-82
2024/01/14 11:15:12;;;;;;;21.08;8.30;;;;;;;0.74;61.15;96727.84;5010806;28;20064;-82
2024/01/14 11:17:52;;;;;;;19.58;8.20;;;;;;;0.93;60.19;96732.22;5020195;28;20026;-82
2024/01/14 11:20:21;;;;;;;19.55;7.65;;;;;;;0.85;60.68;96718.81;5000288;28;20381;-83